createdAt,value
2023-05-02T00:00:08.668Z,1.00
2023-05-02T00:02:58.531Z,0.90
2023-05-02T00:05:28.095Z,0.80
2023-05-02T00:07:57.169Z,1.00
2023-05-02T00:10:26.087Z,1.00
2023-05-02T00:12:54.788Z,1.20
2023-05-02T00:15:23.826Z,1.00
2023-05-02T00:17:52.422Z,1.20
2023-05-02T00:20:21.306Z,1.30
2023-05-02T00:22:49.794Z,1.10
2023-05-02T00:25:18.662Z,1.10
2023-05-02T00:27:47.909Z,1.00
2023-05-02T00:30:18.272Z,1.10
2023-05-02T00:32:47.142Z,1.10
2023-05-02T00:35:15.982Z,0.90
2023-05-02T00:37:44.559Z,1.10
2023-05-02T00:40:13.686Z,1.10
2023-05-02T00:42:42.323Z,1.10
2023-05-02T00:45:11.969Z,1.20
2023-05-02T00:47:40.940Z,1.20
2023-05-02T00:50:09.794Z,1.20
2023-05-02T00:52:38.475Z,1.50
2023-05-02T00:55:08.286Z,1.00
2023-05-02T00:57:37.019Z,0.90
2023-05-02T01:00:07.446Z,0.80
2023-05-02T01:02:41.984Z,0.90
2023-05-02T01:05:17.194Z,0.80
2023-05-02T01:08:03.198Z,0.90
2023-05-02T01:10:50.706Z,0.80
2023-05-02T01:13:32.686Z,1.00
2023-05-02T01:16:06.253Z,1.00
2023-05-02T01:18:37.861Z,1.10
2023-05-02T01:21:12.392Z,0.80
2023-05-02T01:24:11.439Z,0.90
2023-05-02T01:26:59.685Z,1.00
2023-05-02T01:29:29.979Z,0.90
2023-05-02T01:32:01.580Z,1.40
2023-05-02T01:34:32.884Z,0.90
2023-05-02T01:37:05.080Z,1.10
2023-05-02T01:39:36.142Z,1.10
2023-05-02T01:42:06.815Z,1.10
2023-05-02T01:44:37.385Z,1.10
2023-05-02T01:47:08.262Z,0.90
2023-05-02T01:49:39.031Z,0.80
2023-05-02T01:52:11.978Z,0.90
2023-05-02T01:54:44.053Z,0.90
2023-05-02T01:57:13.936Z,0.90
2023-05-02T01:59:44.898Z,1.00
2023-05-02T02:02:16.645Z,1.10
2023-05-02T02:04:48.117Z,1.10
2023-05-02T02:07:17.360Z,1.00
2023-05-02T02:09:46.752Z,1.10
2023-05-02T02:12:24.699Z,1.00
2023-05-02T02:15:20.569Z,1.00
2023-05-02T02:18:15.598Z,0.80
2023-05-02T02:20:47.351Z,0.80
2023-05-02T02:23:17.434Z,0.90
2023-05-02T02:25:46.862Z,0.80
2023-05-02T02:28:15.772Z,0.80
2023-05-02T02:30:45.016Z,0.90
2023-05-02T02:33:13.890Z,1.00
2023-05-02T02:35:53.237Z,0.80
2023-05-02T02:38:39.613Z,0.60
2023-05-02T02:41:28.235Z,0.90
2023-05-02T02:44:23.961Z,0.80
2023-05-02T02:47:12.495Z,0.70
2023-05-02T02:50:06.632Z,0.80
2023-05-02T02:53:06.675Z,0.80
2023-05-02T02:55:49.030Z,0.90
2023-05-02T02:58:37.766Z,1.00
2023-05-02T03:01:13.077Z,0.60
2023-05-02T03:03:44.795Z,0.70
2023-05-02T03:06:14.336Z,0.90
2023-05-02T03:08:45.526Z,0.70
2023-05-02T03:11:14.359Z,0.80
2023-05-02T03:13:43.553Z,0.90
2023-05-02T03:16:31.433Z,0.70
2023-05-02T03:19:00.611Z,0.80
2023-05-02T03:21:32.038Z,1.10
2023-05-02T03:24:05.170Z,1.00
2023-05-02T03:26:34.769Z,1.00
2023-05-02T03:29:04.607Z,1.10
2023-05-02T03:31:33.718Z,1.00
2023-05-02T03:34:02.887Z,1.00
2023-05-02T03:36:32.181Z,0.90
2023-05-02T03:39:01.582Z,0.90
2023-05-02T03:41:31.103Z,1.00
2023-05-02T03:44:00.314Z,0.90
2023-05-02T03:46:29.448Z,0.80
2023-05-02T03:48:59.718Z,0.90
2023-05-02T03:51:29.009Z,1.10
2023-05-02T03:53:59.186Z,1.00
2023-05-02T03:56:28.513Z,1.00
2023-05-02T03:58:57.458Z,0.90
2023-05-02T04:01:26.315Z,1.00
2023-05-02T04:03:55.485Z,0.70
2023-05-02T04:06:24.617Z,0.90
2023-05-02T04:08:53.715Z,1.00
2023-05-02T04:11:22.997Z,1.00
2023-05-02T04:13:53.470Z,1.00
2023-05-02T04:16:22.964Z,1.10
2023-05-02T04:18:51.981Z,1.00
2023-05-02T04:21:20.873Z,1.20
2023-05-02T04:23:49.712Z,0.90
2023-05-02T04:26:18.657Z,1.00
2023-05-02T04:28:47.601Z,1.30
2023-05-02T04:31:16.970Z,1.00
2023-05-02T04:33:46.070Z,0.90
2023-05-02T04:36:15.554Z,1.30
2023-05-02T04:38:45.275Z,1.20
2023-05-02T04:41:15.622Z,0.80
2023-05-02T04:43:46.043Z,1.00
2023-05-02T04:46:15.036Z,1.10
2023-05-02T04:48:44.595Z,1.00
2023-05-02T04:51:15.540Z,1.20
2023-05-02T04:53:45.975Z,1.20
2023-05-02T04:56:15.007Z,1.30
2023-05-02T04:58:44.371Z,1.20
2023-05-02T05:01:13.542Z,1.20
2023-05-02T05:03:43.726Z,1.40
2023-05-02T05:06:13.205Z,1.40
2023-05-02T05:08:42.249Z,1.20
2023-05-02T05:11:11.558Z,1.40
2023-05-02T05:13:40.510Z,10.90
2023-05-02T05:16:09.849Z,11.70
2023-05-02T05:18:42.535Z,3.60
2023-05-02T05:21:11.973Z,2.20
2023-05-02T05:23:46.557Z,1.60
2023-05-02T05:26:17.140Z,1.40
2023-05-02T05:28:46.414Z,1.40
2023-05-02T05:31:18.434Z,1.40
2023-05-02T05:33:48.045Z,1.60
2023-05-02T05:36:17.892Z,1.30
2023-05-02T05:38:48.170Z,1.40
2023-05-02T05:41:18.653Z,1.30
2023-05-02T05:43:47.766Z,1.60
2023-05-02T05:46:16.921Z,1.70
2023-05-02T05:48:47.284Z,1.50
2023-05-02T05:51:17.407Z,1.40
2023-05-02T05:53:48.147Z,1.40
2023-05-02T05:56:18.963Z,1.30
2023-05-02T05:58:48.516Z,1.50
2023-05-02T06:01:18.743Z,1.50
2023-05-02T06:03:48.222Z,1.80
2023-05-02T06:06:18.022Z,1.80
2023-05-02T06:08:47.049Z,1.90
2023-05-02T06:11:16.508Z,1.60
2023-05-02T06:13:45.428Z,2.00
2023-05-02T06:16:14.775Z,1.70
2023-05-02T06:18:44.118Z,1.80
2023-05-02T06:21:13.685Z,1.50
2023-05-02T06:23:42.643Z,1.30
2023-05-02T06:26:11.713Z,1.40
2023-05-02T06:28:40.938Z,1.70
2023-05-02T06:31:10.510Z,1.50
2023-05-02T06:33:39.931Z,2.00
2023-05-02T06:36:09.188Z,1.70
2023-05-02T06:38:38.692Z,1.70
2023-05-02T06:41:13.295Z,1.70
2023-05-02T06:43:42.400Z,1.40
2023-05-02T06:46:11.586Z,1.60
2023-05-02T06:48:41.453Z,1.70
2023-05-02T06:51:10.510Z,1.70
2023-05-02T06:53:40.116Z,1.70
2023-05-02T06:56:11.143Z,2.10
2023-05-02T06:58:40.997Z,2.00
2023-05-02T07:01:11.480Z,2.80
2023-05-02T07:03:42.192Z,2.50
2023-05-02T07:06:11.990Z,2.70
2023-05-02T07:08:41.473Z,2.40
2023-05-02T07:11:11.487Z,2.00
2023-05-02T07:13:42.549Z,1.80
2023-05-02T07:16:11.997Z,2.00
2023-05-02T07:18:43.073Z,1.70
2023-05-02T07:21:15.005Z,1.80
2023-05-02T07:23:44.304Z,1.70
2023-05-02T07:26:13.562Z,1.60
2023-05-02T07:28:42.940Z,1.70
2023-05-02T07:31:12.420Z,1.40
2023-05-02T07:33:41.650Z,1.50
2023-05-02T07:36:10.585Z,1.10
2023-05-02T07:38:39.601Z,1.40
2023-05-02T07:41:09.054Z,1.20
2023-05-02T07:43:39.243Z,1.10
2023-05-02T07:46:08.827Z,0.90
2023-05-02T07:48:39.147Z,1.20
2023-05-02T07:51:10.511Z,5.80
2023-05-02T07:53:39.728Z,0.80
2023-05-02T07:56:09.530Z,0.80
2023-05-02T07:58:38.679Z,0.70
2023-05-02T08:01:08.697Z,0.50
2023-05-02T08:03:37.772Z,0.80
2023-05-02T08:06:07.004Z,0.90
2023-05-02T08:08:36.823Z,0.80
2023-05-02T08:11:06.278Z,0.70
2023-05-02T08:13:35.237Z,0.90
2023-05-02T08:16:04.790Z,0.90
2023-05-02T08:18:34.045Z,1.00
2023-05-02T08:21:03.258Z,0.90
2023-05-02T08:23:33.449Z,0.80
2023-05-02T08:26:03.338Z,0.70
2023-05-02T08:28:33.367Z,0.70
2023-05-02T08:31:02.951Z,0.80
2023-05-02T08:33:32.254Z,0.70
2023-05-02T08:36:02.008Z,0.80
2023-05-02T08:38:32.126Z,0.80
2023-05-02T08:41:01.792Z,0.80
2023-05-02T08:43:33.460Z,0.40
2023-05-02T08:46:05.416Z,0.40
2023-05-02T08:48:39.281Z,0.40
2023-05-02T08:51:11.755Z,0.40
2023-05-02T08:53:42.105Z,0.30
2023-05-02T08:56:13.046Z,0.50
2023-05-02T08:58:43.006Z,0.40
2023-05-02T09:01:22.384Z,0.50
2023-05-02T09:03:53.260Z,0.40
2023-05-02T09:06:23.455Z,0.30
2023-05-02T09:08:53.842Z,0.30
2023-05-02T09:11:23.197Z,0.20
2023-05-02T09:13:53.135Z,0.40
2023-05-02T09:16:27.623Z,0.40
2023-05-02T09:18:59.529Z,0.50
2023-05-02T09:21:47.825Z,0.50
2023-05-02T09:24:22.949Z,0.60
2023-05-02T09:27:05.090Z,0.80
2023-05-02T09:29:39.336Z,0.50
2023-05-02T09:32:08.792Z,0.50
2023-05-02T09:34:40.178Z,0.40
2023-05-02T09:37:12.153Z,0.40
2023-05-02T09:39:41.773Z,0.30
2023-05-02T09:42:11.349Z,0.50
2023-05-02T09:44:41.310Z,0.30
2023-05-02T09:47:10.869Z,0.40
2023-05-02T09:49:45.861Z,0.40
2023-05-02T09:52:18.031Z,0.40
2023-05-02T09:54:47.838Z,0.40
2023-05-02T09:57:17.344Z,0.40
2023-05-02T09:59:58.524Z,0.50
2023-05-02T10:02:33.260Z,0.50
2023-05-02T10:05:05.290Z,0.60
2023-05-02T10:07:35.665Z,0.70
2023-05-02T10:10:07.565Z,0.70
2023-05-02T10:12:39.568Z,0.60
2023-05-02T10:15:13.908Z,0.40
2023-05-02T10:17:52.118Z,0.70
2023-05-02T10:20:28.242Z,0.90
2023-05-02T10:23:01.707Z,0.50
2023-05-02T10:25:31.330Z,0.90
2023-05-02T10:28:01.150Z,0.50
2023-05-02T10:30:32.388Z,0.40
2023-05-02T10:33:03.763Z,0.40
2023-05-02T10:35:33.334Z,0.30
2023-05-02T10:38:03.333Z,0.40
2023-05-02T10:40:33.122Z,0.40
2023-05-02T10:43:02.849Z,0.50
2023-05-02T10:45:33.204Z,0.40
2023-05-02T10:48:25.998Z,0.30
2023-05-02T10:50:58.050Z,0.50
2023-05-02T10:53:37.065Z,0.50
2023-05-02T10:56:22.796Z,0.40
2023-05-02T10:58:54.041Z,0.50
2023-05-02T11:01:29.076Z,0.40
2023-05-02T11:04:09.389Z,0.40
2023-05-02T11:07:00.227Z,0.30
2023-05-02T11:09:29.820Z,0.40
2023-05-02T11:11:59.702Z,0.40
2023-05-02T11:14:34.125Z,0.60
2023-05-02T11:17:05.879Z,0.30
2023-05-02T11:19:47.271Z,0.40
2023-05-02T11:22:23.808Z,0.60
2023-05-02T11:24:54.728Z,0.70
2023-05-02T11:27:34.093Z,0.60
2023-05-02T11:30:08.348Z,0.50
2023-05-02T11:32:50.063Z,0.60
2023-05-02T11:35:26.651Z,0.60
2023-05-02T11:37:58.190Z,0.60
2023-05-02T11:40:29.187Z,0.50
2023-05-02T11:43:00.466Z,0.50
2023-05-02T11:45:36.838Z,0.70
2023-05-02T11:48:08.189Z,0.60
2023-05-02T11:50:51.931Z,0.50
2023-05-02T11:53:27.229Z,0.50
2023-05-02T11:56:01.487Z,0.60
2023-05-02T11:58:35.787Z,0.40
2023-05-02T12:01:15.732Z,0.80
2023-05-02T12:03:46.214Z,0.40
2023-05-02T12:06:19.855Z,0.40
2023-05-02T12:08:50.285Z,0.50
2023-05-02T12:11:19.632Z,0.50
2023-05-02T12:13:50.948Z,0.40
2023-05-02T12:16:20.876Z,0.70
2023-05-02T12:18:51.251Z,0.50
2023-05-02T12:21:20.996Z,0.40
2023-05-02T12:23:50.497Z,0.60
2023-05-02T12:26:29.992Z,0.50
2023-05-02T12:29:01.389Z,0.60
2023-05-02T12:31:32.477Z,0.40
2023-05-02T12:34:02.088Z,0.80
2023-05-02T12:36:34.485Z,0.60
2023-05-02T12:39:05.521Z,0.60
2023-05-02T12:41:38.527Z,0.50
2023-05-02T12:44:08.470Z,0.60
2023-05-02T12:46:37.948Z,0.60
2023-05-02T12:49:10.287Z,0.60
2023-05-02T12:51:41.306Z,0.60
2023-05-02T12:54:22.027Z,0.50
2023-05-02T12:56:52.602Z,0.50
2023-05-02T12:59:31.772Z,0.70
2023-05-02T13:02:01.438Z,0.70
2023-05-02T13:04:42.624Z,0.90
2023-05-02T13:07:13.283Z,0.80
2023-05-02T13:09:42.896Z,0.90
2023-05-02T13:12:12.337Z,0.80
2023-05-02T13:14:43.332Z,0.80
2023-05-02T13:17:13.770Z,0.90
2023-05-02T13:19:50.409Z,0.90
2023-05-02T13:22:28.294Z,1.00
2023-05-02T13:24:58.450Z,1.10
2023-05-02T13:27:28.840Z,0.90
2023-05-02T13:29:58.483Z,1.00
2023-05-02T13:32:29.010Z,1.00
2023-05-02T13:34:58.526Z,1.20
2023-05-02T13:37:28.720Z,1.00
2023-05-02T13:39:58.592Z,0.90
2023-05-02T13:42:27.724Z,0.90
2023-05-02T13:44:57.240Z,1.00
2023-05-02T13:47:26.895Z,0.80
2023-05-02T13:49:56.779Z,0.80
2023-05-02T13:52:26.560Z,0.90
2023-05-02T13:54:56.566Z,1.00
2023-05-02T13:57:26.289Z,0.80
2023-05-02T13:59:56.007Z,0.90
2023-05-02T14:02:26.802Z,0.90
2023-05-02T14:04:57.493Z,1.00
2023-05-02T14:07:27.234Z,0.70
2023-05-02T14:09:57.521Z,0.80
2023-05-02T14:12:26.990Z,0.70
2023-05-02T14:14:58.107Z,0.60
2023-05-02T14:17:28.058Z,0.60
2023-05-02T14:19:59.008Z,0.80
2023-05-02T14:22:28.812Z,0.70
2023-05-02T14:24:58.631Z,0.60
2023-05-02T14:27:28.590Z,0.50
2023-05-02T14:29:59.353Z,0.70
2023-05-02T14:32:29.245Z,0.50
2023-05-02T14:34:59.415Z,0.90
2023-05-02T14:37:29.595Z,0.70
2023-05-02T14:40:00.146Z,0.90
2023-05-02T14:42:30.310Z,1.00
2023-05-02T14:45:02.780Z,0.70
2023-05-02T14:47:32.072Z,0.60
2023-05-02T14:50:04.087Z,0.80
2023-05-02T14:52:33.563Z,1.00
2023-05-02T14:55:03.826Z,0.80
2023-05-02T14:57:34.342Z,0.80
2023-05-02T15:00:11.292Z,0.90
2023-05-02T15:02:41.784Z,1.00
2023-05-02T15:05:12.914Z,1.10
2023-05-02T15:07:42.368Z,1.20
2023-05-02T15:10:12.424Z,1.00
2023-05-02T15:12:43.942Z,1.30
2023-05-02T15:15:13.274Z,1.50
2023-05-02T15:17:42.784Z,1.90
2023-05-02T15:20:14.637Z,1.30
2023-05-02T15:22:44.930Z,0.80
2023-05-02T15:25:15.202Z,0.90
2023-05-02T15:27:45.300Z,5.00
2023-05-02T15:30:17.716Z,0.70
2023-05-02T15:32:49.214Z,1.30
2023-05-02T15:35:19.390Z,0.90
2023-05-02T15:37:51.855Z,1.00
2023-05-02T15:40:21.668Z,1.20
2023-05-02T15:42:51.068Z,0.90
2023-05-02T15:45:21.173Z,1.10
2023-05-02T15:47:51.987Z,1.10
2023-05-02T15:50:21.192Z,1.00
2023-05-02T15:52:51.749Z,1.30
2023-05-02T15:55:21.432Z,2.20
2023-05-02T15:57:52.415Z,1.10
2023-05-02T16:00:22.988Z,1.50
2023-05-02T16:02:52.680Z,1.50
2023-05-02T16:05:23.790Z,1.10
2023-05-02T16:07:53.981Z,1.00
2023-05-02T16:10:25.507Z,1.10
2023-05-02T16:12:56.583Z,1.40
2023-05-02T16:15:27.356Z,0.90
2023-05-02T16:17:56.627Z,0.90
2023-05-02T16:20:26.675Z,1.20
2023-05-02T16:22:56.051Z,1.10
2023-05-02T16:25:25.811Z,1.10
2023-05-02T16:27:56.381Z,1.00
2023-05-02T16:30:29.128Z,0.90
2023-05-02T16:32:58.650Z,1.20
2023-05-02T16:35:28.155Z,1.00
2023-05-02T16:37:57.616Z,1.20
2023-05-02T16:40:28.315Z,0.90
2023-05-02T16:42:57.938Z,1.10
2023-05-02T16:45:27.478Z,1.50
2023-05-02T16:47:59.661Z,1.00
2023-05-02T16:50:30.062Z,1.00
2023-05-02T16:52:59.346Z,1.00
2023-05-02T16:55:28.735Z,0.90
2023-05-02T16:57:58.957Z,1.30
2023-05-02T17:00:29.983Z,0.90
2023-05-02T17:03:02.265Z,1.00
2023-05-02T17:05:33.965Z,0.80
2023-05-02T17:08:04.407Z,1.00
2023-05-02T17:10:35.044Z,0.90
2023-05-02T17:13:06.858Z,0.80
2023-05-02T17:15:40.118Z,0.80
2023-05-02T17:18:09.439Z,0.80
2023-05-02T17:20:40.829Z,0.90
2023-05-02T17:23:10.968Z,0.80
2023-05-02T17:25:43.096Z,0.70
2023-05-02T17:28:14.515Z,1.10
2023-05-02T17:30:44.745Z,1.10
2023-05-02T17:33:15.730Z,0.80
2023-05-02T17:35:46.171Z,0.60
2023-05-02T17:38:16.591Z,0.60
2023-05-02T17:40:45.957Z,0.50
2023-05-02T17:43:15.160Z,0.60
2023-05-02T17:45:45.290Z,0.80
2023-05-02T17:48:15.170Z,0.80
2023-05-02T17:50:44.859Z,0.90
2023-05-02T17:53:16.139Z,0.90
2023-05-02T17:55:46.805Z,0.60
2023-05-02T17:58:17.915Z,0.90
2023-05-02T18:00:47.816Z,0.60
2023-05-02T18:03:18.621Z,0.50
2023-05-02T18:05:48.190Z,0.70
2023-05-02T18:08:18.050Z,0.60
2023-05-02T18:10:47.237Z,0.60
2023-05-02T18:13:17.166Z,0.70
2023-05-02T18:15:47.587Z,1.00
2023-05-02T18:18:17.403Z,0.80
2023-05-02T18:20:47.842Z,0.60
2023-05-02T18:23:17.960Z,0.60
2023-05-02T18:25:48.659Z,0.70
2023-05-02T18:28:20.270Z,0.70
2023-05-02T18:30:50.787Z,0.60
2023-05-02T18:33:20.401Z,0.60
2023-05-02T18:35:51.055Z,0.60
2023-05-02T18:38:20.802Z,0.50
2023-05-02T18:40:51.102Z,0.50
2023-05-02T18:43:23.890Z,0.80
2023-05-02T18:45:55.656Z,0.60
2023-05-02T18:48:27.030Z,0.50
2023-05-02T18:50:59.370Z,0.50
2023-05-02T18:53:31.151Z,0.40
2023-05-02T18:56:02.066Z,0.70
2023-05-02T18:58:34.384Z,0.50
2023-05-02T19:01:13.320Z,0.50
2023-05-02T19:03:44.679Z,0.60
2023-05-02T19:06:16.424Z,0.50
2023-05-02T19:08:49.381Z,0.50
2023-05-02T19:11:20.512Z,0.50
2023-05-02T19:13:51.693Z,0.60
2023-05-02T19:16:26.855Z,0.50
2023-05-02T19:18:59.185Z,0.90
2023-05-02T19:21:31.200Z,0.70
2023-05-02T19:24:04.190Z,0.50
2023-05-02T19:26:35.003Z,0.70
2023-05-02T19:29:06.045Z,0.80
2023-05-02T19:31:36.831Z,0.70
2023-05-02T19:34:08.336Z,0.70
2023-05-02T19:36:40.162Z,0.90
2023-05-02T19:39:14.975Z,0.90
2023-05-02T19:41:52.312Z,0.90
2023-05-02T19:44:26.441Z,1.00
2023-05-02T19:46:58.945Z,1.10
2023-05-02T19:49:29.521Z,0.80
2023-05-02T19:52:00.217Z,1.00
2023-05-02T19:54:32.512Z,1.00
2023-05-02T19:57:03.874Z,0.80
2023-05-02T19:59:34.699Z,0.60
2023-05-02T20:02:05.623Z,0.70
2023-05-02T20:04:37.029Z,0.60
2023-05-02T20:07:08.251Z,0.60
2023-05-02T20:09:40.457Z,1.10
2023-05-02T20:12:11.753Z,0.70
2023-05-02T20:14:44.194Z,0.60
2023-05-02T20:17:14.244Z,0.90
2023-05-02T20:19:47.152Z,0.80
2023-05-02T20:22:19.672Z,0.50
2023-05-02T20:24:51.701Z,0.60
2023-05-02T20:27:21.866Z,0.50
2023-05-02T20:29:52.875Z,0.60
2023-05-02T20:32:22.852Z,0.50
2023-05-02T20:34:52.481Z,0.60
2023-05-02T20:37:22.762Z,0.70
2023-05-02T20:39:54.479Z,0.60
2023-05-02T20:42:26.133Z,0.50
2023-05-02T20:45:02.036Z,0.50
2023-05-02T20:47:33.182Z,0.80
2023-05-02T20:50:03.191Z,0.70
2023-05-02T20:52:34.460Z,0.50
2023-05-02T20:55:04.815Z,0.80
2023-05-02T20:57:35.220Z,0.70
2023-05-02T21:00:05.731Z,0.70
2023-05-02T21:02:35.679Z,0.70
2023-05-02T21:05:05.770Z,0.60
2023-05-02T21:07:36.016Z,0.60
2023-05-02T21:10:06.787Z,0.70
2023-05-02T21:12:36.804Z,0.70
2023-05-02T21:15:08.301Z,0.70
2023-05-02T21:17:41.019Z,0.70
2023-05-02T21:20:12.113Z,0.60
2023-05-02T21:22:44.090Z,0.70
2023-05-02T21:25:17.154Z,0.60
2023-05-02T21:27:48.574Z,0.70
2023-05-02T21:30:19.461Z,0.70
2023-05-02T21:32:51.009Z,0.50
2023-05-02T21:35:21.045Z,0.80
2023-05-02T21:37:50.851Z,0.80
2023-05-02T21:40:20.224Z,0.80
2023-05-02T21:42:49.444Z,0.50
2023-05-02T21:45:19.112Z,0.60
2023-05-02T21:47:48.763Z,0.80
2023-05-02T21:50:19.653Z,0.70
2023-05-02T21:52:49.069Z,0.70
2023-05-02T21:55:20.872Z,0.60
2023-05-02T21:57:52.139Z,0.90
2023-05-02T22:00:24.545Z,1.00
2023-05-02T22:02:54.066Z,0.60
2023-05-02T22:05:24.871Z,0.60
2023-05-02T22:07:54.942Z,0.60
2023-05-02T22:10:25.605Z,0.70
2023-05-02T22:12:57.043Z,0.80
2023-05-02T22:15:27.432Z,0.80
2023-05-02T22:17:57.561Z,0.90
2023-05-02T22:20:28.193Z,0.70
2023-05-02T22:22:59.246Z,0.90
2023-05-02T22:25:28.812Z,0.80
2023-05-02T22:28:01.843Z,0.90
2023-05-02T22:30:31.029Z,0.60
2023-05-02T22:33:01.500Z,0.70
2023-05-02T22:35:31.304Z,0.70
2023-05-02T22:38:02.872Z,0.80
2023-05-02T22:40:33.160Z,1.00
2023-05-02T22:43:02.438Z,0.80
2023-05-02T22:45:31.790Z,1.00
2023-05-02T22:48:01.153Z,1.10
2023-05-02T22:50:31.979Z,0.90
2023-05-02T22:53:04.329Z,0.80
2023-05-02T22:55:33.710Z,0.80
2023-05-02T22:58:03.544Z,0.70
2023-05-02T23:00:32.906Z,0.80
2023-05-02T23:03:03.416Z,0.60
2023-05-02T23:05:32.764Z,0.70
2023-05-02T23:08:02.116Z,0.60
2023-05-02T23:10:31.270Z,0.70
2023-05-02T23:13:00.336Z,0.70
2023-05-02T23:15:29.525Z,0.60
2023-05-02T23:17:59.902Z,0.60
2023-05-02T23:20:29.590Z,0.60
2023-05-02T23:22:59.141Z,0.60
2023-05-02T23:25:28.782Z,0.60
2023-05-02T23:27:57.981Z,0.60
2023-05-02T23:30:27.141Z,0.70
2023-05-02T23:32:56.605Z,0.70
2023-05-02T23:35:25.900Z,0.60
2023-05-02T23:37:55.088Z,0.70
2023-05-02T23:40:23.878Z,0.80
2023-05-02T23:42:54.461Z,0.70
2023-05-02T23:45:23.230Z,0.80
2023-05-02T23:47:52.331Z,0.80
2023-05-02T23:50:21.418Z,0.70
2023-05-02T23:52:50.570Z,0.80
2023-05-02T23:55:19.478Z,0.70
2023-05-02T23:57:48.415Z,0.90
